Time;durP1;ratioP1;P1;durP2;ratioP2;P2;SDS_P1;SDS_P2;PMS_P1;PMS_P2;Temp;Humidity;BMP_temperature;BMP_pressure;BME280_temperature;BME280_humidity;BME280_pressure;Samples;Min_cycle;Max_cycle;Signal;HPM_P1;HPM_P2
2021/12/03 00:02:14;;;;;;;6.90;2.30;;;;;;;8.31;56.93;100210.69;4975600;28;20029;-95
2021/12/03 00:04:39;;;;;;;4.13;1.92;;;;;;;8.26;57.21;100207.50;4974918;28;20026;-93
2021/12/03 00:07:04;;;;;;;7.72;1.98;;;;;;;8.23;56.89;100205.06;4991161;28;20526;-91
2021/12/03 00:09:35;;;;;;;6.35;1.98;;;;;;;8.16;57.89;100206.38;4992110;28;20022;-89
2021/12/03 00:12:04;;;;;;;4.80;2.03;;;;;;;8.23;58.20;100201.63;4992453;28;20113;-90
2021/12/03 00:14:30;;;;;;;4.82;2.00;;;;;;;8.20;58.29;100196.59;4990417;28;20034;-91
2021/12/03 00:16:55;;;;;;;7.05;2.17;;;;;;;8.09;58.15;100194.59;4992133;28;20018;-91
2021/12/03 00:19:21;;;;;;;6.38;2.40;;;;;;;8.13;59.67;100188.25;4991307;28;20034;-90
2021/12/03 00:21:46;;;;;;;6.47;1.90;;;;;;;8.22;59.80;100198.16;4992504;28;20034;-90
2021/12/03 00:24:11;;;;;;;6.82;2.10;;;;;;;8.16;59.91;100187.25;4992957;28;20053;-91
2021/12/03 00:26:38;;;;;;;4.38;1.77;;;;;;;7.98;60.27;100191.78;4992745;28;20086;-90
2021/12/03 00:29:04;;;;;;;3.78;1.70;;;;;;;8.16;59.92;100182.03;4992267;28;20032;-91
2021/12/03 00:31:29;;;;;;;6.65;2.00;;;;;;;8.22;59.63;100173.78;4992070;28;20196;-90
2021/12/03 00:33:54;;;;;;;4.97;2.35;;;;;;;8.20;60.43;100170.44;4992072;28;20034;-90
2021/12/03 00:36:20;;;;;;;5.28;2.03;;;;;;;8.24;60.05;100166.69;4992452;28;20125;-90
2021/12/03 00:38:48;;;;;;;4.82;1.77;;;;;;;8.14;60.10;100169.88;4992679;28;20085;-91
2021/12/03 00:41:18;;;;;;;4.10;1.70;;;;;;;8.24;60.38;100161.47;4992237;28;20068;-90
2021/12/03 00:43:46;;;;;;;3.33;1.60;;;;;;;8.28;60.48;100158.53;4992309;28;20026;-90
2021/12/03 00:46:15;;;;;;;7.15;2.00;;;;;;;8.05;60.86;100146.88;4992720;28;20046;-91
2021/12/03 00:48:40;;;;;;;6.65;2.15;;;;;;;8.13;61.18;100144.63;4992639;28;20030;-91
2021/12/03 00:51:07;;;;;;;3.80;2.33;;;;;;;8.20;61.08;100137.25;4992723;28;20026;-91
2021/12/03 00:53:32;;;;;;;5.00;1.95;;;;;;;8.09;61.71;100142.31;4992184;28;20459;-91
2021/12/03 00:55:58;;;;;;;7.30;1.88;;;;;;;8.13;61.47;100141.19;4993011;28;20041;-92
2021/12/03 00:58:23;;;;;;;8.02;1.70;;;;;;;8.15;61.73;100134.09;4993071;28;20102;-92
2021/12/03 01:00:49;;;;;;;7.40;2.03;;;;;;;8.16;62.17;100138.41;4992598;28;20868;-92
2021/12/03 01:03:15;;;;;;;8.20;1.63;;;;;;;8.16;62.26;100133.16;4992243;28;20373;-92
2021/12/03 01:05:40;;;;;;;6.85;1.67;;;;;;;8.19;62.59;100127.72;4992748;28;20033;-91
2021/12/03 01:08:06;;;;;;;3.67;1.50;;;;;;;8.19;62.59;100116.44;4992920;28;20031;-91
2021/12/03 01:10:32;;;;;;;3.45;1.58;;;;;;;8.16;62.17;100114.84;4992787;28;20537;-91
2021/12/03 01:12:57;;;;;;;4.00;1.50;;;;;;;8.13;62.85;100102.78;4992105;28;20033;-91
2021/12/03 01:15:29;;;;;;;7.88;1.60;;;;;;;8.20;62.58;100108.50;4992679;28;20030;-91
2021/12/03 01:17:54;;;;;;;4.55;1.60;;;;;;;8.06;62.72;100098.91;4992326;28;20526;-91
2021/12/03 01:20:20;;;;;;;3.78;1.77;;;;;;;8.20;62.77;100097.19;4992266;28;20042;-90
2021/12/03 01:22:47;;;;;;;6.45;1.60;;;;;;;8.04;63.71;100082.47;4991950;28;20022;-90
2021/12/03 01:25:16;;;;;;;5.70;2.20;;;;;;;8.14;63.12;100087.97;4994241;28;20133;-90
2021/12/03 01:27:42;;;;;;;5.38;1.90;;;;;;;8.15;63.37;100071.31;4978786;28;20034;-90
2021/12/03 01:30:12;;;;;;;4.05;1.90;;;;;;;8.23;63.57;100060.38;4996245;28;20030;-90
2021/12/03 01:32:38;;;;;;;8.18;1.80;;;;;;;8.17;63.39;100056.38;4995780;28;20049;-91
2021/12/03 01:35:04;;;;;;;4.93;1.80;;;;;;;8.06;64.07;100045.78;4996325;28;20124;-90
2021/12/03 01:37:30;;;;;;;5.32;2.17;;;;;;;7.88;64.50;100045.16;4996151;28;20290;-91
2021/12/03 01:39:55;;;;;;;8.52;1.98;;;;;;;8.09;64.42;100029.88;4996029;28;20280;-91
2021/12/03 01:42:21;;;;;;;8.35;2.10;;;;;;;7.98;63.90;100030.56;4995779;28;20030;-91
2021/12/03 01:44:46;;;;;;;3.78;1.67;;;;;;;8.10;63.77;100024.56;4996444;28;20034;-91
2021/12/03 01:47:12;;;;;;;3.83;1.63;;;;;;;8.13;63.73;100007.81;4996522;28;20416;-91
2021/12/03 01:49:38;;;;;;;5.70;1.67;;;;;;;8.13;64.29;100007.81;4996142;28;20019;-91
2021/12/03 01:52:03;;;;;;;7.15;2.00;;;;;;;8.08;64.57;99991.59;4995559;28;20026;-91
2021/12/03 01:54:29;;;;;;;7.72;1.63;;;;;;;8.05;63.98;99989.16;4996078;28;20105;-91
2021/12/03 01:56:54;;;;;;;6.45;1.60;;;;;;;8.14;64.28;99972.91;4995920;28;20023;-91
2021/12/03 01:59:20;;;;;;;3.78;1.40;;;;;;;8.11;64.47;99968.69;4996066;28;20069;-91
2021/12/03 02:01:45;;;;;;;4.80;1.88;;;;;;;8.00;64.71;99965.94;4995624;28;20052;-91
2021/12/03 02:04:11;;;;;;;3.53;1.17;;;;;;;8.21;64.82;99952.41;4978367;28;20029;-92
2021/12/03 02:06:37;;;;;;;9.15;1.60;;;;;;;8.21;64.78;99948.00;4978426;28;20030;-91
2021/12/03 02:09:05;;;;;;;3.65;1.38;;;;;;;8.00;65.93;99937.19;4994526;28;20018;-92
2021/12/03 02:11:31;;;;;;;5.70;1.73;;;;;;;8.12;64.34;99932.94;4995536;28;20057;-91
2021/12/03 02:13:56;;;;;;;6.25;1.80;;;;;;;8.27;63.89;99926.72;4995527;28;20514;-91
2021/12/03 02:16:22;;;;;;;2.80;1.50;;;;;;;8.30;64.77;99926.47;4995567;28;20026;-92
2021/12/03 02:18:48;;;;;;;4.47;1.42;;;;;;;8.41;64.74;99914.47;4995782;28;20058;-91
2021/12/03 02:21:16;;;;;;;5.38;1.55;;;;;;;8.38;64.46;99902.44;4995367;28;20473;-91
2021/12/03 02:23:42;;;;;;;4.35;1.50;;;;;;;8.48;64.91;99902.69;4994999;28;20089;-91
2021/12/03 02:26:07;;;;;;;6.30;1.70;;;;;;;8.49;65.21;99910.44;4995386;28;20035;-91
2021/12/03 02:28:38;;;;;;;4.57;1.30;;;;;;;8.46;64.16;99904.56;4995635;28;20045;-92
2021/12/03 02:31:04;;;;;;;6.38;1.50;;;;;;;8.43;65.18;99896.91;4995536;28;20030;-92
2021/12/03 02:33:31;;;;;;;6.40;1.60;;;;;;;8.53;64.21;99900.59;4994775;28;20026;-92
2021/12/03 02:35:57;;;;;;;5.63;1.40;;;;;;;8.59;64.98;99894.97;4994899;28;20033;-92
2021/12/03 02:38:23;;;;;;;6.25;1.38;;;;;;;8.40;65.14;99899.72;4995238;28;20034;-92
2021/12/03 02:40:50;;;;;;;7.88;1.73;;;;;;;8.34;65.28;99896.56;4995339;28;20116;-92
2021/12/03 02:43:16;;;;;;;7.57;1.45;;;;;;;8.37;65.74;99894.69;4994941;28;20176;-92
2021/12/03 02:45:42;;;;;;;3.42;1.70;;;;;;;8.43;65.79;99883.84;4995683;28;20097;-92
2021/12/03 02:48:08;;;;;;;5.22;1.70;;;;;;;8.41;65.68;99883.06;4995400;28;20034;-92
2021/12/03 02:50:33;;;;;;;5.05;2.08;;;;;;;8.39;65.76;99879.72;4995560;28;20072;-91
2021/12/03 02:53:00;;;;;;;3.75;1.60;;;;;;;8.43;65.55;99873.38;4994959;28;20089;-91
2021/12/03 02:55:25;;;;;;;6.07;1.60;;;;;;;8.41;65.73;99865.66;4994845;28;20531;-91
2021/12/03 02:57:51;;;;;;;8.18;1.60;;;;;;;8.49;65.90;99852.03;4994784;28;20058;-92
2021/12/03 03:00:20;;;;;;;3.38;1.65;;;;;;;8.49;66.25;99842.41;4977269;28;20025;-91
2021/12/03 03:02:45;;;;;;;3.00;1.48;;;;;;;8.60;66.35;99843.44;4994319;28;20077;-91
2021/12/03 03:05:13;;;;;;;2.90;1.60;;;;;;;8.59;65.86;99826.06;4994362;28;20105;-91
2021/12/03 03:07:39;;;;;;;4.68;1.77;;;;;;;8.66;65.90;99817.69;4994405;28;20026;-91
2021/12/03 03:10:11;;;;;;;3.45;1.88;;;;;;;8.67;65.57;99798.44;4994355;28;20080;-91
2021/12/03 03:12:39;;;;;;;4.32;1.63;;;;;;;8.79;65.30;99801.97;4993504;28;20077;-91
2021/12/03 03:15:06;;;;;;;4.05;1.45;;;;;;;8.95;65.68;99786.03;4994248;28;20030;-92
2021/12/03 03:17:31;;;;;;;3.67;1.40;;;;;;;8.95;65.50;99785.19;4994254;28;20464;-90
2021/12/03 03:19:59;;;;;;;3.88;1.70;;;;;;;8.84;65.86;99778.91;4994265;28;20042;-90
2021/12/03 03:22:26;;;;;;;3.58;1.02;;;;;;;8.87;66.22;99780.50;4993491;28;20066;-91
2021/12/03 03:24:53;;;;;;;2.22;0.98;;;;;;;8.93;66.00;99754.72;4993549;28;20033;-91
2021/12/03 03:27:21;;;;;;;4.82;1.25;;;;;;;9.00;66.63;99747.25;4994282;28;20030;-90
2021/12/03 03:29:48;;;;;;;0.90;0.73;;;;;;;8.91;66.15;99743.50;4994096;28;20092;-91
2021/12/03 03:32:14;;;;;;;3.17;1.00;;;;;;;9.02;66.59;99745.34;4993677;28;20030;-90
2021/12/03 03:34:39;;;;;;;2.90;1.00;;;;;;;9.19;66.28;99741.50;4993885;28;20022;-91
2021/12/03 03:37:05;;;;;;;3.83;1.00;;;;;;;9.19;66.26;99727.59;4993621;28;20052;-91
2021/12/03 03:39:30;;;;;;;2.80;1.10;;;;;;;9.25;66.32;99703.56;4993941;28;20034;-92
2021/12/03 03:41:56;;;;;;;3.58;0.73;;;;;;;9.18;66.23;99697.09;4994183;28;20022;-92
2021/12/03 03:44:22;;;;;;;3.15;0.80;;;;;;;9.28;66.34;99692.84;4994368;28;20578;-91
2021/12/03 03:46:51;;;;;;;3.20;0.98;;;;;;;9.27;66.29;99683.31;4994131;28;20181;-91
2021/12/03 03:49:17;;;;;;;2.42;0.85;;;;;;;9.29;66.65;99674.41;4993470;28;20026;-91
2021/12/03 03:51:42;;;;;;;1.15;0.50;;;;;;;9.32;66.66;99671.56;4993906;28;20109;-91
2021/12/03 03:54:08;;;;;;;0.95;0.60;;;;;;;9.34;66.93;99671.47;4993749;28;20109;-92
2021/12/03 03:56:33;;;;;;;1.35;0.40;;;;;;;9.32;67.34;99668.94;4993920;28;20077;-92
2021/12/03 03:58:59;;;;;;;2.17;0.57;;;;;;;9.36;67.37;99663.47;4993898;28;20023;-91
2021/12/03 04:01:24;;;;;;;2.78;0.50;;;;;;;9.38;67.20;99656.31;4993807;28;20484;-91
2021/12/03 04:03:50;;;;;;;2.05;0.30;;;;;;;9.40;67.71;99655.28;4975754;28;20387;-92
2021/12/03 04:06:17;;;;;;;1.70;0.50;;;;;;;9.52;66.46;99651.72;4993576;28;20541;-91
2021/12/03 04:08:44;;;;;;;4.72;0.52;;;;;;;9.59;67.25;99649.47;4993347;28;20034;-92
2021/12/03 04:11:10;;;;;;;0.75;0.40;;;;;;;9.59;66.97;99649.47;4993905;28;20031;-92
2021/12/03 04:13:36;;;;;;;0.88;0.50;;;;;;;9.60;67.00;99647.69;4993161;28;20105;-92
2021/12/03 04:16:02;;;;;;;2.00;0.40;;;;;;;9.54;67.01;99635.88;4993727;28;20477;-92
2021/12/03 04:18:27;;;;;;;2.55;0.43;;;;;;;9.72;66.66;99629.22;4976520;28;20018;-92
2021/12/03 04:20:53;;;;;;;1.95;0.50;;;;;;;9.72;66.99;99624.00;4993919;28;20065;-91
2021/12/03 04:23:20;;;;;;;1.17;0.40;;;;;;;9.77;67.53;99623.63;4993374;28;20065;-92
2021/12/03 04:25:46;;;;;;;1.08;0.28;;;;;;;9.78;66.97;99614.81;4994185;28;20077;-93
2021/12/03 04:28:12;;;;;;;1.30;0.40;;;;;;;9.82;66.36;99612.81;4993862;28;20110;-92
2021/12/03 04:30:38;;;;;;;1.52;1.08;;;;;;;9.89;67.13;99606.09;4994115;28;20058;-92
2021/12/03 04:33:03;;;;;;;0.85;0.40;;;;;;;10.00;66.89;99602.66;4993338;28;20041;-91
2021/12/03 04:35:29;;;;;;;0.50;0.20;;;;;;;9.97;66.22;99580.13;4993673;28;20026;-92
2021/12/03 04:37:55;;;;;;;0.50;0.30;;;;;;;10.01;66.90;99578.09;4993641;28;20109;-92
2021/12/03 04:40:22;;;;;;;1.65;0.47;;;;;;;10.02;66.72;99571.91;4993738;28;20053;-92
2021/12/03 04:42:48;;;;;;;1.38;0.30;;;;;;;10.12;66.76;99564.97;4993341;28;20544;-93
2021/12/03 04:45:18;;;;;;;0.52;0.28;;;;;;;10.10;66.46;99561.63;4993441;28;20069;-92
2021/12/03 04:47:43;;;;;;;1.35;0.40;;;;;;;9.96;67.92;99546.16;4994555;28;20037;-94
2021/12/03 04:50:11;;;;;;;0.73;0.22;;;;;;;10.21;66.88;99543.25;4995127;28;20391;-94
2021/12/03 04:52:37;;;;;;;0.52;0.20;;;;;;;10.44;66.27;99541.41;4994782;28;20037;-93
2021/12/03 04:55:04;;;;;;;0.40;0.30;;;;;;;10.46;66.50;99538.69;4995389;28;20022;-94
2021/12/03 04:57:29;;;;;;;0.63;0.40;;;;;;;10.30;66.79;99529.41;4994810;28;20102;-94
2021/12/03 04:59:54;;;;;;;0.40;0.20;;;;;;;10.47;66.37;99529.84;4995755;28;20050;-93
2021/12/03 05:02:21;;;;;;;1.83;0.30;;;;;;;10.30;67.66;99529.41;4981858;28;20428;-93
2021/12/03 05:04:48;;;;;;;0.20;0.20;;;;;;;10.48;67.17;99526.25;4997947;28;20115;-93
2021/12/03 05:07:29;;;;;;;119.95;31.10;;;;;;;10.43;67.66;99523.19;5001013;28;20034;-93
2021/12/03 05:09:55;;;;;;;2.50;0.20;;;;;;;10.48;67.75;99510.50;4980557;28;20058;-93
2021/12/03 05:12:20;;;;;;;1.35;0.20;;;;;;;10.54;67.71;99506.56;4996305;28;20022;-91
2021/12/03 05:14:46;;;;;;;0.10;0.10;;;;;;;10.54;67.58;99515.25;4996833;28;20400;-93
2021/12/03 05:17:11;;;;;;;1.17;0.20;;;;;;;10.52;67.97;99504.91;4996684;28;20026;-92
2021/12/03 05:19:37;;;;;;;0.20;0.10;;;;;;;10.69;67.74;99508.75;4997120;28;20037;-91
2021/12/03 05:22:02;;;;;;;0.35;0.20;;;;;;;10.74;67.22;99486.53;4996772;28;20543;-93
2021/12/03 05:24:28;;;;;;;0.45;0.20;;;;;;;10.74;68.12;99479.47;4995091;28;20034;-92
2021/12/03 05:26:54;;;;;;;0.10;0.10;;;;;;;10.80;67.97;99480.75;4996899;28;20057;-91
2021/12/03 05:29:20;;;;;;;0.28;0.20;;;;;;;10.70;68.25;99481.53;4995986;28;20038;-92
2021/12/03 05:31:45;;;;;;;0.30;0.20;;;;;;;10.88;68.17;99497.56;4996295;28;20420;-93
2021/12/03 05:34:13;;;;;;;1.05;0.30;;;;;;;10.94;68.19;99488.34;4995806;28;20023;-93
2021/12/03 05:36:39;;;;;;;0.30;0.20;;;;;;;10.71;69.58;99472.69;4996492;28;20019;-92
2021/12/03 05:39:06;;;;;;;2.00;0.20;;;;;;;11.00;69.04;99464.19;4996036;28;21770;-93
2021/12/03 05:41:34;;;;;;;0.45;0.20;;;;;;;11.14;68.36;99470.88;4996083;28;20556;-91
2021/12/03 05:43:59;;;;;;;0.68;0.30;;;;;;;11.21;68.08;99474.63;4995571;28;20117;-92
2021/12/03 05:46:25;;;;;;;0.82;0.20;;;;;;;11.28;68.30;99467.91;4995254;28;20391;-91
2021/12/03 05:48:50;;;;;;;0.20;0.20;;;;;;;11.42;68.21;99479.84;4996276;28;20508;-91
2021/12/03 05:51:16;;;;;;;4.68;0.30;;;;;;;11.34;68.29;99450.78;4995124;28;20400;-91
2021/12/03 05:53:41;;;;;;;0.80;0.20;;;;;;;11.58;67.88;99454.88;4989439;28;20054;-91
2021/12/03 05:56:07;;;;;;;0.88;0.20;;;;;;;11.60;68.05;99439.78;4988971;28;20085;-92
2021/12/03 05:58:32;;;;;;;0.10;0.10;;;;;;;11.66;67.95;99437.44;4995832;28;20034;-93
2021/12/03 06:00:57;;;;;;;0.40;0.20;;;;;;;11.67;68.04;99440.91;4994968;28;20031;-93
2021/12/03 06:03:23;;;;;;;1.75;0.52;;;;;;;11.64;68.35;99441.19;4990238;28;20023;-93
2021/12/03 06:05:49;;;;;;;0.68;0.38;;;;;;;11.69;68.19;99436.38;4992886;28;20019;-92
2021/12/03 06:08:15;;;;;;;0.45;0.40;;;;;;;11.75;68.21;99445.47;4989906;28;20073;-93
2021/12/03 06:10:42;;;;;;;0.60;0.30;;;;;;;11.71;68.11;99437.06;4994666;28;20431;-93
2021/12/03 06:13:07;;;;;;;0.77;0.30;;;;;;;11.78;68.08;99447.84;4994454;28;20026;-93
2021/12/03 06:15:33;;;;;;;0.38;0.30;;;;;;;11.67;68.26;99440.91;4996415;28;20093;-94
2021/12/03 06:17:58;;;;;;;0.30;0.30;;;;;;;11.67;68.42;99439.13;4994764;28;20022;-93
2021/12/03 06:20:25;;;;;;;1.30;0.50;;;;;;;11.77;68.94;99435.66;4996057;28;20085;-93
2021/12/03 06:22:50;;;;;;;0.13;0.13;;;;;;;11.78;68.58;99426.81;4996733;28;20031;-95
2021/12/03 06:25:17;;;;;;;0.20;0.20;;;;;;;11.85;68.82;99425.31;4996804;28;20028;-93
2021/12/03 06:27:43;;;;;;;0.10;0.10;;;;;;;11.87;68.79;99429.47;4995618;28;20034;-94
2021/12/03 06:30:12;;;;;;;0.30;0.20;;;;;;;11.93;68.66;99440.41;4996716;28;20033;-93
2021/12/03 06:32:39;;;;;;;0.60;0.20;;;;;;;12.03;68.68;99438.66;4996269;28;20030;-94
2021/12/03 06:35:07;;;;;;;0.35;0.30;;;;;;;11.97;69.11;99433.94;4978323;28;20037;-95
2021/12/03 06:37:33;;;;;;;0.43;0.32;;;;;;;12.10;68.78;99421.31;4995803;28;20084;-94
2021/12/03 06:39:59;;;;;;;1.85;0.10;;;;;;;12.13;68.79;99417.63;4995934;28;20026;-93
2021/12/03 06:42:25;;;;;;;1.25;0.20;;;;;;;12.22;68.96;99422.03;4995625;28;20114;-93
2021/12/03 06:44:50;;;;;;;0.50;0.30;;;;;;;12.21;68.85;99423.84;4994634;28;20021;-93
2021/12/03 06:47:15;;;;;;;0.22;0.13;;;;;;;12.26;69.05;99426.03;4992029;28;20061;-94
2021/12/03 06:49:41;;;;;;;0.93;0.20;;;;;;;12.29;68.83;99429.22;4990080;28;20117;-93
2021/12/03 06:52:11;;;;;;;0.30;0.30;;;;;;;12.27;69.15;99438.25;4996089;28;20081;-94
2021/12/03 06:54:36;;;;;;;0.20;0.20;;;;;;;12.36;69.15;99433.94;4995432;28;20026;-93
2021/12/03 06:57:04;;;;;;;1.45;0.50;;;;;;;12.50;68.72;99423.00;4995742;28;20030;-94
2021/12/03 06:59:31;;;;;;;0.30;0.30;;;;;;;12.42;69.05;99426.31;4995030;28;20049;-94
2021/12/03 07:01:57;;;;;;;0.40;0.30;;;;;;;12.45;69.08;99426.03;4995735;28;20035;-93
2021/12/03 07:04:22;;;;;;;0.40;0.40;;;;;;;12.50;68.79;99428.25;4995648;28;20036;-93
2021/12/03 07:06:48;;;;;;;0.43;0.38;;;;;;;12.46;69.01;99422.44;4995415;28;20027;-93
2021/12/03 07:09:14;;;;;;;0.50;0.32;;;;;;;12.51;68.91;99437.81;4995036;28;20030;-92
2021/12/03 07:11:41;;;;;;;0.35;0.35;;;;;;;12.48;68.89;99432.84;4995623;28;20081;-93
2021/12/03 07:14:07;;;;;;;0.40;0.40;;;;;;;12.44;68.62;99434.91;4995368;28;20118;-93
2021/12/03 07:16:33;;;;;;;0.90;0.70;;;;;;;12.46;69.03;99429.47;4995172;28;20105;-93
2021/12/03 07:18:58;;;;;;;1.65;0.60;;;;;;;12.44;68.98;99434.91;4994534;28;20105;-93
2021/12/03 07:21:24;;;;;;;0.60;0.57;;;;;;;12.40;68.64;99433.53;4994952;28;20042;-93
2021/12/03 07:23:51;;;;;;;1.00;0.60;;;;;;;12.36;68.77;99429.53;4994892;28;20034;-93
2021/12/03 07:26:18;;;;;;;1.05;0.60;;;;;;;12.37;68.71;99438.25;4996212;28;20025;-93
2021/12/03 07:28:44;;;;;;;0.50;0.50;;;;;;;12.35;68.73;99438.38;4994324;28;20026;-91
2021/12/03 07:31:09;;;;;;;0.93;0.40;;;;;;;12.36;68.17;99440.06;4993735;28;20353;-91
2021/12/03 07:33:35;;;;;;;2.60;0.80;;;;;;;12.34;68.66;99438.50;4993839;28;20057;-90
2021/12/03 07:36:01;;;;;;;2.40;1.20;;;;;;;12.34;68.54;99441.97;4993765;28;20054;-92
2021/12/03 07:38:26;;;;;;;1.10;0.90;;;;;;;12.35;68.69;99432.28;4993319;28;20026;-90
2021/12/03 07:40:52;;;;;;;0.50;0.50;;;;;;;12.40;69.23;99419.53;4993348;28;20022;-92
2021/12/03 07:43:18;;;;;;;3.00;0.80;;;;;;;12.45;69.16;99420.75;4993057;28;20081;-91
2021/12/03 07:45:47;;;;;;;1.90;1.08;;;;;;;12.46;69.05;99413.69;4993292;28;20034;-90
2021/12/03 07:48:13;;;;;;;2.33;1.00;;;;;;;12.45;68.88;99404.97;4993178;28;20023;-91
2021/12/03 07:50:41;;;;;;;2.67;1.40;;;;;;;12.47;69.15;99399.56;4993487;28;20068;-92
2021/12/03 07:53:08;;;;;;;2.17;1.25;;;;;;;12.50;68.86;99401.94;4993105;28;20023;-91
2021/12/03 07:55:34;;;;;;;2.30;1.10;;;;;;;12.50;68.98;99391.41;4993339;28;20057;-90
2021/12/03 07:57:59;;;;;;;3.28;2.30;;;;;;;12.53;69.00;99406.06;4992626;28;20022;-91
2021/12/03 08:00:25;;;;;;;4.25;2.50;;;;;;;12.55;69.19;99415.50;4993071;28;20026;-90
2021/12/03 08:02:50;;;;;;;6.30;3.40;;;;;;;12.58;68.87;99422.25;4993229;28;20030;-90
2021/12/03 08:05:16;;;;;;;6.07;4.53;;;;;;;12.61;69.16;99425.44;4992984;28;20022;-91
2021/12/03 08:07:45;;;;;;;6.47;4.45;;;;;;;12.64;69.30;99432.25;4992888;28;20039;-92
2021/12/03 08:10:12;;;;;;;10.65;5.30;;;;;;;12.62;69.11;99431.56;4993048;28;20450;-91
2021/12/03 08:12:39;;;;;;;4.93;3.95;;;;;;;12.67;69.28;99426.69;4992918;28;20030;-91
2021/12/03 08:15:05;;;;;;;8.38;6.28;;;;;;;12.68;69.35;99425.72;4992889;28;20073;-90
2021/12/03 08:17:30;;;;;;;9.40;7.18;;;;;;;12.75;69.48;99431.25;4991605;28;20486;-89
2021/12/03 08:19:56;;;;;;;10.20;7.70;;;;;;;12.78;69.70;99434.44;4992462;28;20092;-90
2021/12/03 08:22:22;;;;;;;20.63;8.85;;;;;;;12.77;70.08;99439.84;4990413;28;20026;-90
2021/12/03 08:24:47;;;;;;;14.85;10.30;;;;;;;12.70;70.19;99443.03;4992625;28;20057;-90
2021/12/03 08:27:12;;;;;;;14.30;10.63;;;;;;;12.74;70.68;99446.22;4992409;28;20503;-90
2021/12/03 08:29:38;;;;;;;15.93;11.82;;;;;;;12.82;70.31;99453.44;4992487;28;20030;-90
2021/12/03 08:32:04;;;;;;;17.52;11.75;;;;;;;12.79;70.52;99461.59;4982207;28;20089;-91
2021/12/03 08:34:29;;;;;;;21.13;12.38;;;;;;;12.65;70.89;99447.91;4992163;28;20033;-87
2021/12/03 08:36:55;;;;;;;16.80;11.45;;;;;;;12.92;70.29;99453.41;4987556;28;20490;-90
2021/12/03 08:39:20;;;;;;;16.05;11.38;;;;;;;12.97;69.86;99436.16;4989552;28;20034;-91
2021/12/03 08:41:46;;;;;;;17.35;12.07;;;;;;;12.99;69.93;99428.97;4989084;28;20038;-92
2021/12/03 08:44:11;;;;;;;13.73;10.82;;;;;;;13.03;69.93;99440.91;4984123;28;20026;-96
2021/12/03 08:46:38;;;;;;;18.90;11.80;;;;;;;12.98;69.94;99444.94;4995855;28;20034;-95
2021/12/03 08:49:09;;;;;;;15.70;11.70;;;;;;;12.99;70.17;99447.41;4992801;28;20069;-94
2021/12/03 08:56:53;;;;;;;16.67;12.10;;;;;;;13.13;69.77;99418.94;4987113;28;20045;-93
2021/12/03 08:59:19;;;;;;;22.75;12.00;;;;;;;13.15;69.91;99411.72;4989540;28;20421;-92
2021/12/03 09:01:45;;;;;;;18.67;12.45;;;;;;;13.14;69.78;99415.34;4954611;28;20039;-94
2021/12/03 09:04:13;;;;;;;17.30;11.43;;;;;;;13.20;69.67;99417.38;4988835;28;20519;-92
2021/12/03 09:06:39;;;;;;;17.42;12.18;;;;;;;13.21;69.57;99408.47;4989450;28;20481;-93
2021/12/03 09:09:07;;;;;;;13.77;11.52;;;;;;;13.31;69.43;99411.97;4986399;28;20053;-93
2021/12/03 09:11:36;;;;;;;17.20;11.73;;;;;;;13.32;69.54;99410.97;4987666;28;20031;-93
2021/12/03 09:14:11;;;;;;;17.17;11.77;;;;;;;13.26;69.64;99420.25;4985816;28;20450;-93
2021/12/03 09:16:36;;;;;;;18.42;12.93;;;;;;;13.36;69.17;99422.06;4986230;28;20031;-93
2021/12/03 09:19:05;;;;;;;15.32;11.75;;;;;;;13.44;69.22;99420.34;4981604;28;20048;-93
2021/12/03 09:21:34;;;;;;;15.27;9.55;;;;;;;13.54;68.77;99411.56;4991299;28;20031;-93
2021/12/03 09:26:29;;;;;;;14.73;11.68;;;;;;;13.56;69.10;99413.06;4977477;28;20523;-93
2021/12/03 09:29:02;;;;;;;17.05;11.50;;;;;;;13.52;69.21;99400.31;4983509;28;20423;-93
2021/12/03 09:31:28;;;;;;;15.60;11.23;;;;;;;13.71;68.84;99402.03;4989047;28;20073;-92
2021/12/03 09:33:54;;;;;;;16.58;11.23;;;;;;;13.94;69.30;99412.97;4987825;28;20026;-92
2021/12/03 09:36:19;;;;;;;17.50;11.35;;;;;;;14.09;69.37;99409.63;4991587;28;20460;-95
2021/12/03 09:38:45;;;;;;;16.88;10.95;;;;;;;14.26;68.97;99402.69;4992165;28;20464;-93
2021/12/03 09:41:17;;;;;;;19.17;13.40;;;;;;;14.42;69.23;99398.53;4988051;28;20034;-94
2021/12/03 09:43:49;;;;;;;15.25;11.77;;;;;;;14.72;68.68;99402.56;4967392;28;20038;-91
2021/12/03 09:46:26;;;;;;;15.05;11.60;;;;;;;14.80;67.48;99399.97;4984726;28;20127;-95
2021/12/03 09:54:29;;;;;;;12.10;9.25;;;;;;;15.05;66.65;99422.09;4992800;28;20084;-95
2021/12/03 09:57:09;;;;;;;15.98;9.35;;;;;;;15.02;66.38;99425.03;4994177;28;20124;-94
2021/12/03 10:15:26;;;;;;;13.85;9.10;;;;;;;14.90;66.29;99431.56;4996244;28;20115;-95
2021/12/03 10:20:35;;;;;;;10.70;8.77;;;;;;;14.95;65.69;99437.25;5002066;28;20062;-96
2021/12/03 10:39:09;;;;;;;12.07;9.57;;;;;;;15.52;65.19;99430.53;5004169;28;20106;-95
2021/12/03 10:41:46;;;;;;;12.80;8.73;;;;;;;15.69;65.23;99426.16;5000156;28;20034;-96
2021/12/03 10:44:32;;;;;;;9.98;7.78;;;;;;;15.90;64.57;99407.22;5004965;28;20058;-95
2021/12/03 12:16:33;;;;;;;14.38;8.70;;;;;;;15.63;64.52;99351.69;4988162;28;20041;-94
2021/12/03 13:27:45;;;;;;;11.52;7.60;;;;;;;15.87;63.25;99241.59;4998084;28;20535;-96
2021/12/03 14:02:03;;;;;;;11.07;6.90;;;;;;;15.92;63.75;99214.63;4936303;29;20044;-96
2021/12/03 14:04:54;;;;;;;9.45;4.90;;;;;;;15.97;63.69;99209.66;4981228;28;20035;-95
2021/12/03 14:57:08;;;;;;;11.27;7.18;;;;;;;15.49;64.80;99198.09;4993979;28;20041;-96
2021/12/03 14:59:36;;;;;;;8.43;7.00;;;;;;;15.42;64.85;99195.25;4995423;28;20027;-95
2021/12/03 15:02:15;;;;;;;8.93;7.30;;;;;;;15.41;64.84;99194.44;4994873;28;20030;-96
2021/12/03 15:05:34;;;;;;;10.65;7.35;;;;;;;15.41;64.79;99180.41;4995936;28;20053;-96
2021/12/03 15:07:49;;;;;;;8.15;6.82;;;;;;;15.28;65.00;99191.44;4991391;28;20042;-96
2021/12/03 15:10:23;;;;;;;9.02;6.82;;;;;;;15.23;65.17;99184.03;4996195;28;20022;-96
2021/12/03 15:13:15;;;;;;;9.25;7.97;;;;;;;15.20;65.28;99178.22;4993409;28;20476;-95
2021/12/03 15:18:37;;;;;;;9.48;7.32;;;;;;;15.18;65.10;99183.66;4992782;28;19918;-95
2021/12/03 15:21:27;;;;;;;11.45;8.30;;;;;;;15.14;65.41;99178.88;4994300;28;20038;-96
2021/12/03 15:26:35;;;;;;;14.25;8.02;;;;;;;15.05;65.57;99165.66;4995524;28;20038;-96
2021/12/03 15:31:53;;;;;;;11.32;7.47;;;;;;;14.96;65.74;99153.41;4990409;28;20054;-94
2021/12/03 16:11:58;;;;;;;9.30;6.15;;;;;;;14.59;66.12;99133.53;4985500;28;20042;-89
2021/12/03 16:44:21;;;;;;;8.18;4.60;;;;;;;14.18;66.25;99108.75;4982128;28;20050;-95
2021/12/03 16:46:59;;;;;;;5.88;4.72;;;;;;;14.13;66.34;99101.34;4978189;28;20039;-96
2021/12/03 16:51:57;;;;;;;8.93;5.20;;;;;;;14.08;66.52;99095.72;4983420;28;20089;-96
2021/12/03 16:54:48;;;;;;;8.10;4.78;;;;;;;14.06;66.49;99081.84;4983887;28;20113;-96
2021/12/03 16:57:10;;;;;;;6.53;4.60;;;;;;;14.05;66.52;99075.72;4981796;28;20102;-96
2021/12/03 16:59:37;;;;;;;8.20;5.28;;;;;;;14.03;66.42;99063.69;4969133;28;20624;-96
2021/12/03 17:02:12;;;;;;;7.80;5.40;;;;;;;14.04;66.71;99067.97;4979040;28;20038;-96
2021/12/03 17:44:59;;;;;;;10.63;8.10;;;;;;;13.48;66.08;99005.06;4938457;28;20485;-95
2021/12/03 17:59:58;;;;;;;11.50;6.70;;;;;;;13.24;66.60;99011.00;4965298;28;20037;-95
2021/12/03 18:02:37;;;;;;;11.27;6.78;;;;;;;13.24;66.53;99000.47;4973951;28;20047;-95
2021/12/03 18:13:44;;;;;;;11.35;7.18;;;;;;;13.25;66.42;98988.09;4989308;28;20053;-96
2021/12/03 18:16:31;;;;;;;10.70;7.38;;;;;;;13.22;66.50;98989.25;4993907;28;20030;-96
2021/12/03 18:52:02;;;;;;;12.50;9.38;;;;;;;13.09;66.94;98992.31;4978010;28;20121;-95
2021/12/03 18:57:27;;;;;;;13.07;8.10;;;;;;;13.13;67.20;98984.09;4908583;28;20044;-95
2021/12/03 18:59:57;;;;;;;11.43;8.15;;;;;;;13.12;67.20;98990.34;4979310;28;20106;-95
2021/12/03 19:02:24;;;;;;;15.57;9.02;;;;;;;13.10;67.06;98983.41;4977591;28;20031;-96
2021/12/03 19:04:57;;;;;;;13.70;7.68;;;;;;;13.16;67.21;98997.78;4979101;28;20027;-96
2021/12/03 19:07:31;;;;;;;13.73;8.27;;;;;;;13.11;67.04;98994.78;4978539;28;20062;-96
2021/12/03 19:10:00;;;;;;;10.07;7.75;;;;;;;13.08;66.85;98985.38;4977084;28;20139;-95
2021/12/03 19:12:27;;;;;;;15.15;8.68;;;;;;;13.02;67.60;98975.47;4984385;28;20111;-95
2021/12/03 19:14:57;;;;;;;13.65;7.38;;;;;;;13.01;67.15;98965.94;4978544;28;20033;-96
2021/12/03 19:17:23;;;;;;;13.38;8.32;;;;;;;13.00;67.04;98966.88;4971871;28;20054;-95